LFSN/ENC METAR and TAF weather

Enter ICAO airport designator
Station Type Date Time Source
LFSN METAR 2019/12/08 01:00 UTC NOAA

LFSN 080100Z AUTO 19007KT 160V220 9999 OVC037 08/06 Q1017


Station Type Date Time Source
LFSN Decoded METAR 2019/12/08 01:00 UTC NOAA

Nancy / Essey, France (LFSN) 48-41N 006-13E 217M
Dec 07, 2019 - 08:00 PM EST / 2019.12.08 0100 UTC
Wind: from the S (190 degrees) at 8 MPH (7 KT) (direction variable):0
Visibility: greater than 7 mile(s):0
Sky conditions: overcast
Temperature: 46 F (8 C)
Dew Point: 42 F (6 C)
Relative Humidity: 87%
Pressure (altimeter): 30.03 in. Hg (1017 hPa)
ob: LFSN 080100Z AUTO 19007KT 160V220 9999 OVC037 08/06 Q1017
cycle: 1

Station Type Date Time Source
LFSN TAF 2012/03/14 16:58 UTC NOAA

TAF LFSN 141600Z 1416/1512 CNL

Example: see airport list